Scorpio — WDH7833 — position and weather

sailwx.info

Track history (hours):
 
Tides and Currents Weather Stations Pressure Air Temp Water Temp Dewpoint Dewpoint Depression Visibility Wind Speed Wind Dir Waves Ship Positions

Scorpio

Owner: Bruno, Thomas R, Wayside, NJ. More information available from US FCC via Universal Licensing System and Coast Guard Vessel Documentation Center.

Last reported at 2018-May-09 16:01 UTC. Time now 2018-Jun-24 20:09 UTC.
Position N 39°46' W 074°04'.
Warning: this ship's position is 46 days out of date.

Type: Pleasure craft. MMSI: 367652050.

Date/timePositionNaut miles runAvg speedWind from/ knotsBaromVisibWave heightAir tempDewpointWater temp
2018-May-09 16:01N 39°46' W 074°04'117.2
2018-May-09 15:58N 39°46' W 074°04'66 3.0
2018-May-08 17:43N 39°15' W 075°21'417.9
2018-May-08 17:30N 39°18' W 075°24'1018.6
2018-May-08 16:58N 39°26' W 075°31'816.5
2018-May-08 16:30N 39°34' W 075°33'1616.0
2018-May-08 15:31N 39°31' W 075°53'010.7
2018-May-08 15:29N 39°31' W 075°54'42 2.2
2018-May-07 20:35N 38°58' W 076°27'317.9
2018-May-07 20:26N 38°56' W 076°26'12516.2
2018-May-07 12:43N 36°51' W 076°18'0 0.2
2018-May-07 12:27N 36°51' W 076°17'0 0.0
2018-May-07 12:00N 36°51' W 076°17'0 0.0
2018-May-07 11:27N 36°51' W 076°17'0 0.0
2018-May-07 10:57N 36°51' W 076°17'0 0.0
2018-May-07 10:21N 36°51' W 076°17'0 0.0
2018-May-07 09:48N 36°51' W 076°17'0 0.0
2018-May-07 09:21N 36°51' W 076°17'0 0.0
2018-May-07 06:03N 36°51' W 076°17'0 0.0
2018-May-07 05:54N 36°51' W 076°17'0 0.0
2018-May-07 05:27N 36°51' W 076°17'0 0.0
2018-May-07 04:45N 36°51' W 076°17'0 0.0
2018-May-07 04:27N 36°51' W 076°17'0 0.0
2018-May-07 03:48N 36°51' W 076°17'0 0.0
2018-May-07 03:30N 36°51' W 076°17'0 0.0
2018-May-07 02:57N 36°51' W 076°17'0 0.0
2018-May-07 02:30N 36°51' W 076°17'0 0.0
2018-May-07 02:00N 36°51' W 076°17'0 0.0
2018-May-07 01:30N 36°51' W 076°17'0 0.0
2018-May-07 01:00N 36°51' W 076°17'0 0.0
2018-May-07 00:30N 36°51' W 076°17'0 0.0
2018-May-07 00:00N 36°51' W 076°17'0 0.0
2018-May-06 23:30N 36°51' W 076°17'0 0.0
2018-May-06 23:00N 36°51' W 076°17'0 0.0
2018-May-06 22:30N 36°51' W 076°17'0 0.0
2018-May-06 22:00N 36°51' W 076°17'0 0.0
2018-May-06 21:27N 36°51' W 076°17'0 0.0
2018-May-06 21:00N 36°51' W 076°17'0 0.0
2018-May-06 20:30N 36°51' W 076°17'0 0.0
2018-May-06 20:00N 36°51' W 076°17'0 0.0
2018-May-06 19:30N 36°51' W 076°17'0 0.0
2018-May-06 18:58N 36°51' W 076°17'3 6.5
2018-May-06 18:30N 36°48' W 076°18'119 4.1
2018-May-05 13:46N 34°50' W 076°41'2 7.7
2018-May-05 13:30N 34°48' W 076°41'510.3
2018-May-05 13:00N 34°43' W 076°40'1 1.1
2018-May-05 12:28N 34°43' W 076°40'0 0.0
2018-May-05 11:59N 34°43' W 076°40'0 0.0
2018-May-05 11:28N 34°43' W 076°40'0 0.0
2018-May-05 10:58N 34°43' W 076°40'0 0.0
2018-May-05 10:29N 34°43' W 076°40'0 0.0
2018-May-05 09:58N 34°43' W 076°40'0 0.0
2018-May-05 09:28N 34°43' W 076°40'0 0.0
2018-May-05 08:58N 34°43' W 076°40'0 0.0
2018-May-05 08:29N 34°43' W 076°40'0 0.0
2018-May-05 07:59N 34°43' W 076°40'0 0.0
2018-May-05 07:28N 34°43' W 076°40'0 0.0
2018-May-05 06:58N 34°43' W 076°40'0 0.0
2018-May-05 06:28N 34°43' W 076°40'0 0.0
2018-May-05 05:58N 34°43' W 076°40'0 0.0
2018-May-05 05:29N 34°43' W 076°40'0 0.0
2018-May-05 04:58N 34°43' W 076°40'0 0.0
2018-May-05 04:28N 34°43' W 076°40'0 0.0
2018-May-05 03:58N 34°43' W 076°40'0 0.0
2018-May-05 03:28N 34°43' W 076°40'0 0.0
2018-May-05 02:58N 34°43' W 076°40'0 0.0
2018-May-05 02:29N 34°43' W 076°40'0 0.0
2018-May-05 01:58N 34°43' W 076°40'0 0.0
2018-May-05 01:28N 34°43' W 076°40'0 0.0
2018-May-05 00:59N 34°43' W 076°40'0 0.0
2018-May-05 00:28N 34°43' W 076°40'0 0.0
2018-May-04 23:59N 34°43' W 076°40'0 0.0
2018-May-04 23:29N 34°43' W 076°40'0 0.0
2018-May-04 22:58N 34°43' W 076°40'0 0.0
2018-May-04 22:28N 34°43' W 076°40'0 0.0
2018-May-04 21:58N 34°43' W 076°40'0 0.0
2018-May-04 21:28N 34°43' W 076°40'0 0.0
2018-May-04 20:59N 34°43' W 076°40'0 0.0
2018-May-04 20:28N 34°43' W 076°40'0 0.0
2018-May-04 19:58N 34°43' W 076°40'0 0.0
2018-May-04 19:29N 34°43' W 076°40'0 0.0
2018-May-04 18:59N 34°43' W 076°40'0 0.0
2018-May-04 18:28N 34°43' W 076°40'1 1.9
2018-May-04 18:00N 34°42' W 076°41'  
Track history (hours):
 
Tides and Currents Weather Stations Pressure Air Temp Water Temp Dewpoint Dewpoint Depression Visibility Wind Speed Wind Dir Waves Ship Positions

Scorpio

Owner: Bruno, Thomas R, Wayside, NJ. More information available from US FCC via Universal Licensing System and Coast Guard Vessel Documentation Center.

Last reported at 2018-May-09 16:01 UTC. Time now 2018-Jun-24 20:09 UTC.
Position N 39°46' W 074°04'.
Warning: this ship's position is 46 days out of date.

Type: Pleasure craft. MMSI: 367652050.

Date/timePositionNaut miles runAvg speedWind from/ knotsBaromVisibWave heightAir tempDewpointWater temp
2018-May-09 16:01N 39°46' W 074°04'117.2
2018-May-09 15:58N 39°46' W 074°04'66 3.0
2018-May-08 17:43N 39°15' W 075°21'417.9
2018-May-08 17:30N 39°18' W 075°24'1018.6
2018-May-08 16:58N 39°26' W 075°31'816.5
2018-May-08 16:30N 39°34' W 075°33'1616.0
2018-May-08 15:31N 39°31' W 075°53'010.7
2018-May-08 15:29N 39°31' W 075°54'42 2.2
2018-May-07 20:35N 38°58' W 076°27'317.9
2018-May-07 20:26N 38°56' W 076°26'12516.2
2018-May-07 12:43N 36°51' W 076°18'0 0.2
2018-May-07 12:27N 36°51' W 076°17'0 0.0
2018-May-07 12:00N 36°51' W 076°17'0 0.0
2018-May-07 11:27N 36°51' W 076°17'0 0.0
2018-May-07 10:57N 36°51' W 076°17'0 0.0
2018-May-07 10:21N 36°51' W 076°17'0 0.0
2018-May-07 09:48N 36°51' W 076°17'0 0.0
2018-May-07 09:21N 36°51' W 076°17'0 0.0
2018-May-07 06:03N 36°51' W 076°17'0 0.0
2018-May-07 05:54N 36°51' W 076°17'0 0.0
2018-May-07 05:27N 36°51' W 076°17'0 0.0
2018-May-07 04:45N 36°51' W 076°17'0 0.0
2018-May-07 04:27N 36°51' W 076°17'0 0.0
2018-May-07 03:48N 36°51' W 076°17'0 0.0
2018-May-07 03:30N 36°51' W 076°17'0 0.0
2018-May-07 02:57N 36°51' W 076°17'0 0.0
2018-May-07 02:30N 36°51' W 076°17'0 0.0
2018-May-07 02:00N 36°51' W 076°17'0 0.0
2018-May-07 01:30N 36°51' W 076°17'0 0.0
2018-May-07 01:00N 36°51' W 076°17'0 0.0
2018-May-07 00:30N 36°51' W 076°17'0 0.0
2018-May-07 00:00N 36°51' W 076°17'0 0.0
2018-May-06 23:30N 36°51' W 076°17'0 0.0
2018-May-06 23:00N 36°51' W 076°17'0 0.0
2018-May-06 22:30N 36°51' W 076°17'0 0.0
2018-May-06 22:00N 36°51' W 076°17'0 0.0
2018-May-06 21:27N 36°51' W 076°17'0 0.0
2018-May-06 21:00N 36°51' W 076°17'0 0.0
2018-May-06 20:30N 36°51' W 076°17'0 0.0
2018-May-06 20:00N 36°51' W 076°17'0 0.0
2018-May-06 19:30N 36°51' W 076°17'0 0.0
2018-May-06 18:58N 36°51' W 076°17'3 6.5
2018-May-06 18:30N 36°48' W 076°18'119 4.1
2018-May-05 13:46N 34°50' W 076°41'2 7.7
2018-May-05 13:30N 34°48' W 076°41'510.3
2018-May-05 13:00N 34°43' W 076°40'1 1.1
2018-May-05 12:28N 34°43' W 076°40'0 0.0
2018-May-05 11:59N 34°43' W 076°40'0 0.0
2018-May-05 11:28N 34°43' W 076°40'0 0.0
2018-May-05 10:58N 34°43' W 076°40'0 0.0
2018-May-05 10:29N 34°43' W 076°40'0 0.0
2018-May-05 09:58N 34°43' W 076°40'0 0.0
2018-May-05 09:28N 34°43' W 076°40'0 0.0
2018-May-05 08:58N 34°43' W 076°40'0 0.0
2018-May-05 08:29N 34°43' W 076°40'0 0.0
2018-May-05 07:59N 34°43' W 076°40'0 0.0
2018-May-05 07:28N 34°43' W 076°40'0 0.0
2018-May-05 06:58N 34°43' W 076°40'0 0.0
2018-May-05 06:28N 34°43' W 076°40'0 0.0
2018-May-05 05:58N 34°43' W 076°40'0 0.0
2018-May-05 05:29N 34°43' W 076°40'0 0.0
2018-May-05 04:58N 34°43' W 076°40'0 0.0
2018-May-05 04:28N 34°43' W 076°40'0 0.0
2018-May-05 03:58N 34°43' W 076°40'0 0.0
2018-May-05 03:28N 34°43' W 076°40'0 0.0
2018-May-05 02:58N 34°43' W 076°40'0 0.0
2018-May-05 02:29N 34°43' W 076°40'0 0.0
2018-May-05 01:58N 34°43' W 076°40'0 0.0
2018-May-05 01:28N 34°43' W 076°40'0 0.0
2018-May-05 00:59N 34°43' W 076°40'0 0.0
2018-May-05 00:28N 34°43' W 076°40'0 0.0
2018-May-04 23:59N 34°43' W 076°40'0 0.0
2018-May-04 23:29N 34°43' W 076°40'0 0.0
2018-May-04 22:58N 34°43' W 076°40'0 0.0
2018-May-04 22:28N 34°43' W 076°40'0 0.0
2018-May-04 21:58N 34°43' W 076°40'0 0.0
2018-May-04 21:28N 34°43' W 076°40'0 0.0
2018-May-04 20:59N 34°43' W 076°40'0 0.0
2018-May-04 20:28N 34°43' W 076°40'0 0.0
2018-May-04 19:58N 34°43' W 076°40'0 0.0
2018-May-04 19:29N 34°43' W 076°40'0 0.0
2018-May-04 18:59N 34°43' W 076°40'0 0.0
2018-May-04 18:28N 34°43' W 076°40'1 1.9
2018-May-04 18:00N 34°42' W 076°41'  

Dump ship's entire track history